sensor_id;sensor_type;location;lat;lon;timestamp;P1;durP1;ratioP1;P2;durP2;ratioP2
22186;SDS011;11259;52.146;12.844;2023-07-02T00:00:54;2.45;;;1.13;;
22186;SDS011;11259;52.146;12.844;2023-07-02T00:03:20;0.50;;;0.50;;
22186;SDS011;11259;52.146;12.844;2023-07-02T00:05:45;0.63;;;0.63;;
22186;SDS011;11259;52.146;12.844;2023-07-02T00:08:10;0.68;;;0.68;;
22186;SDS011;11259;52.146;12.844;2023-07-02T00:10:37;0.80;;;0.80;;
22186;SDS011;11259;52.146;12.844;2023-07-02T00:13:02;0.98;;;0.95;;
22186;SDS011;11259;52.146;12.844;2023-07-02T00:15:28;0.65;;;0.65;;
22186;SDS011;11259;52.146;12.844;2023-07-02T00:17:53;0.70;;;0.70;;
22186;SDS011;11259;52.146;12.844;2023-07-02T00:20:18;0.55;;;0.55;;
22186;SDS011;11259;52.146;12.844;2023-07-02T00:22:44;0.70;;;0.70;;
22186;SDS011;11259;52.146;12.844;2023-07-02T00:25:09;0.82;;;0.82;;
22186;SDS011;11259;52.146;12.844;2023-07-02T00:27:36;0.55;;;0.55;;
22186;SDS011;11259;52.146;12.844;2023-07-02T00:30:01;0.70;;;0.70;;
22186;SDS011;11259;52.146;12.844;2023-07-02T00:32:27;0.60;;;0.60;;
22186;SDS011;11259;52.146;12.844;2023-07-02T00:34:52;0.80;;;0.80;;
22186;SDS011;11259;52.146;12.844;2023-07-02T00:37:18;2.35;;;0.90;;
22186;SDS011;11259;52.146;12.844;2023-07-02T00:39:43;0.65;;;0.57;;
22186;SDS011;11259;52.146;12.844;2023-07-02T00:42:08;1.15;;;0.80;;
22186;SDS011;11259;52.146;12.844;2023-07-02T00:44:35;1.17;;;1.00;;
22186;SDS011;11259;52.146;12.844;2023-07-02T00:47:00;0.77;;;0.77;;
22186;SDS011;11259;52.146;12.844;2023-07-02T00:49:25;0.73;;;0.70;;
22186;SDS011;11259;52.146;12.844;2023-07-02T00:51:51;0.88;;;0.80;;
22186;SDS011;11259;52.146;12.844;2023-07-02T00:54:16;0.50;;;0.50;;
22186;SDS011;11259;52.146;12.844;2023-07-02T00:56:42;0.80;;;0.80;;
22186;SDS011;11259;52.146;12.844;2023-07-02T00:59:07;1.40;;;0.88;;
22186;SDS011;11259;52.146;12.844;2023-07-02T01:01:34;0.77;;;0.77;;
22186;SDS011;11259;52.146;12.844;2023-07-02T01:04:00;1.00;;;0.80;;
22186;SDS011;11259;52.146;12.844;2023-07-02T01:06:27;1.05;;;0.95;;
22186;SDS011;11259;52.146;12.844;2023-07-02T01:08:54;0.70;;;0.70;;
22186;SDS011;11259;52.146;12.844;2023-07-02T01:11:20;1.02;;;0.95;;
22186;SDS011;11259;52.146;12.844;2023-07-02T01:13:46;0.90;;;0.90;;
22186;SDS011;11259;52.146;12.844;2023-07-02T01:16:13;1.05;;;1.00;;
22186;SDS011;11259;52.146;12.844;2023-07-02T01:18:39;0.85;;;0.82;;
22186;SDS011;11259;52.146;12.844;2023-07-02T01:21:06;0.95;;;0.90;;
22186;SDS011;11259;52.146;12.844;2023-07-02T01:23:31;1.27;;;1.17;;
22186;SDS011;11259;52.146;12.844;2023-07-02T01:25:57;0.80;;;0.80;;
22186;SDS011;11259;52.146;12.844;2023-07-02T01:28:22;1.85;;;0.90;;
22186;SDS011;11259;52.146;12.844;2023-07-02T01:30:48;1.00;;;0.90;;
22186;SDS011;11259;52.146;12.844;2023-07-02T01:33:13;1.60;;;1.10;;
22186;SDS011;11259;52.146;12.844;2023-07-02T01:35:38;1.20;;;1.10;;
22186;SDS011;11259;52.146;12.844;2023-07-02T01:38:05;1.05;;;0.95;;
22186;SDS011;11259;52.146;12.844;2023-07-02T01:40:30;1.83;;;1.20;;
22186;SDS011;11259;52.146;12.844;2023-07-02T01:42:55;2.45;;;1.23;;
22186;SDS011;11259;52.146;12.844;2023-07-02T01:45:21;1.00;;;0.95;;
22186;SDS011;11259;52.146;12.844;2023-07-02T01:47:46;1.30;;;1.08;;
22186;SDS011;11259;52.146;12.844;2023-07-02T01:50:11;1.42;;;1.20;;
22186;SDS011;11259;52.146;12.844;2023-07-02T01:52:37;1.13;;;1.02;;
22186;SDS011;11259;52.146;12.844;2023-07-02T01:55:04;1.92;;;1.27;;
22186;SDS011;11259;52.146;12.844;2023-07-02T01:57:30;1.42;;;0.90;;
22186;SDS011;11259;52.146;12.844;2023-07-02T01:59:55;1.23;;;0.82;;
22186;SDS011;11259;52.146;12.844;2023-07-02T02:02:20;1.20;;;1.10;;
22186;SDS011;11259;52.146;12.844;2023-07-02T02:04:46;1.20;;;0.95;;
22186;SDS011;11259;52.146;12.844;2023-07-02T02:07:11;1.60;;;1.35;;
22186;SDS011;11259;52.146;12.844;2023-07-02T02:09:36;1.30;;;1.20;;
22186;SDS011;11259;52.146;12.844;2023-07-02T02:12:03;1.38;;;1.00;;
22186;SDS011;11259;52.146;12.844;2023-07-02T02:14:29;1.23;;;1.10;;
22186;SDS011;11259;52.146;12.844;2023-07-02T02:16:54;1.23;;;1.10;;
22186;SDS011;11259;52.146;12.844;2023-07-02T02:19:19;1.02;;;0.90;;
22186;SDS011;11259;52.146;12.844;2023-07-02T02:21:45;1.52;;;1.27;;
22186;SDS011;11259;52.146;12.844;2023-07-02T02:24:10;0.98;;;0.90;;
22186;SDS011;11259;52.146;12.844;2023-07-02T02:26:36;1.15;;;1.08;;
22186;SDS011;11259;52.146;12.844;2023-07-02T02:29:02;0.90;;;0.90;;
22186;SDS011;11259;52.146;12.844;2023-07-02T02:31:28;1.67;;;1.00;;
22186;SDS011;11259;52.146;12.844;2023-07-02T02:33:53;1.30;;;1.20;;
22186;SDS011;11259;52.146;12.844;2023-07-02T02:36:18;1.35;;;1.08;;
22186;SDS011;11259;52.146;12.844;2023-07-02T02:38:44;1.40;;;1.10;;
22186;SDS011;11259;52.146;12.844;2023-07-02T02:41:09;2.08;;;1.23;;
22186;SDS011;11259;52.146;12.844;2023-07-02T02:43:34;1.10;;;0.98;;
22186;SDS011;11259;52.146;12.844;2023-07-02T02:46:01;0.75;;;0.75;;
22186;SDS011;11259;52.146;12.844;2023-07-02T02:48:26;1.15;;;1.05;;
22186;SDS011;11259;52.146;12.844;2023-07-02T02:50:52;1.65;;;0.90;;
22186;SDS011;11259;52.146;12.844;2023-07-02T02:53:17;0.93;;;0.90;;
22186;SDS011;11259;52.146;12.844;2023-07-02T02:55:42;0.95;;;0.90;;
22186;SDS011;11259;52.146;12.844;2023-07-02T02:58:08;0.98;;;0.88;;
22186;SDS011;11259;52.146;12.844;2023-07-02T03:00:33;1.25;;;1.15;;
22186;SDS011;11259;52.146;12.844;2023-07-02T03:03:00;0.90;;;0.90;;
22186;SDS011;11259;52.146;12.844;2023-07-02T03:05:25;0.77;;;0.77;;
22186;SDS011;11259;52.146;12.844;2023-07-02T03:07:51;0.82;;;0.82;;
22186;SDS011;11259;52.146;12.844;2023-07-02T03:10:16;1.25;;;0.80;;
22186;SDS011;11259;52.146;12.844;2023-07-02T03:12:42;0.95;;;0.90;;
22186;SDS011;11259;52.146;12.844;2023-07-02T03:15:07;0.85;;;0.85;;
22186;SDS011;11259;52.146;12.844;2023-07-02T03:17:33;1.48;;;1.23;;
22186;SDS011;11259;52.146;12.844;2023-07-02T03:20:00;1.58;;;1.20;;
22186;SDS011;11259;52.146;12.844;2023-07-02T03:22:25;0.88;;;0.88;;
22186;SDS011;11259;52.146;12.844;2023-07-02T03:24:51;1.02;;;0.98;;
22186;SDS011;11259;52.146;12.844;2023-07-02T03:27:16;1.00;;;0.90;;
22186;SDS011;11259;52.146;12.844;2023-07-02T03:29:41;1.10;;;1.00;;
22186;SDS011;11259;52.146;12.844;2023-07-02T03:32:07;1.10;;;1.00;;
22186;SDS011;11259;52.146;12.844;2023-07-02T03:34:32;0.93;;;0.93;;
22186;SDS011;11259;52.146;12.844;2023-07-02T03:36:59;1.20;;;1.10;;
22186;SDS011;11259;52.146;12.844;2023-07-02T03:39:24;1.17;;;1.08;;
22186;SDS011;11259;52.146;12.844;2023-07-02T03:41:50;1.13;;;1.02;;
22186;SDS011;11259;52.146;12.844;2023-07-02T03:44:15;0.90;;;0.90;;
22186;SDS011;11259;52.146;12.844;2023-07-02T03:46:40;1.23;;;1.13;;
22186;SDS011;11259;52.146;12.844;2023-07-02T03:49:06;1.15;;;1.00;;
22186;SDS011;11259;52.146;12.844;2023-07-02T03:51:31;1.38;;;1.25;;
22186;SDS011;11259;52.146;12.844;2023-07-02T03:53:58;1.25;;;1.08;;
22186;SDS011;11259;52.146;12.844;2023-07-02T03:56:24;1.25;;;1.15;;
22186;SDS011;11259;52.146;12.844;2023-07-02T03:58:49;1.40;;;1.30;;
22186;SDS011;11259;52.146;12.844;2023-07-02T04:01:15;1.38;;;1.20;;
22186;SDS011;11259;52.146;12.844;2023-07-02T04:03:42;0.90;;;0.88;;
22186;SDS011;11259;52.146;12.844;2023-07-02T04:06:07;1.05;;;0.98;;
22186;SDS011;11259;52.146;12.844;2023-07-02T04:08:32;1.40;;;0.98;;
22186;SDS011;11259;52.146;12.844;2023-07-02T04:10:59;1.30;;;1.20;;
22186;SDS011;11259;52.146;12.844;2023-07-02T04:13:24;0.98;;;0.85;;
22186;SDS011;11259;52.146;12.844;2023-07-02T04:15:50;1.08;;;0.95;;
22186;SDS011;11259;52.146;12.844;2023-07-02T04:18:15;1.83;;;1.30;;
22186;SDS011;11259;52.146;12.844;2023-07-02T04:20:41;1.25;;;1.05;;
22186;SDS011;11259;52.146;12.844;2023-07-02T04:23:06;1.98;;;1.40;;
22186;SDS011;11259;52.146;12.844;2023-07-02T04:25:31;1.33;;;1.23;;
22186;SDS011;11259;52.146;12.844;2023-07-02T04:27:58;1.20;;;0.85;;
22186;SDS011;11259;52.146;12.844;2023-07-02T04:30:24;1.10;;;1.00;;
22186;SDS011;11259;52.146;12.844;2023-07-02T04:32:49;1.13;;;1.02;;
22186;SDS011;11259;52.146;12.844;2023-07-02T04:35:15;1.08;;;0.98;;
22186;SDS011;11259;52.146;12.844;2023-07-02T04:37:40;1.23;;;1.13;;
22186;SDS011;11259;52.146;12.844;2023-07-02T04:40:06;1.30;;;1.20;;
22186;SDS011;11259;52.146;12.844;2023-07-02T04:42:32;1.13;;;1.02;;
22186;SDS011;11259;52.146;12.844;2023-07-02T04:44:58;1.17;;;1.08;;
22186;SDS011;11259;52.146;12.844;2023-07-02T04:47:24;1.13;;;0.93;;
22186;SDS011;11259;52.146;12.844;2023-07-02T04:49:49;2.38;;;1.33;;
22186;SDS011;11259;52.146;12.844;2023-07-02T04:52:14;1.33;;;1.10;;
22186;SDS011;11259;52.146;12.844;2023-07-02T04:54:40;1.45;;;1.25;;
22186;SDS011;11259;52.146;12.844;2023-07-02T04:57:05;1.25;;;1.00;;
22186;SDS011;11259;52.146;12.844;2023-07-02T04:59:30;1.05;;;0.98;;
22186;SDS011;11259;52.146;12.844;2023-07-02T05:01:57;1.25;;;1.15;;
22186;SDS011;11259;52.146;12.844;2023-07-02T05:04:22;1.50;;;1.20;;
22186;SDS011;11259;52.146;12.844;2023-07-02T05:06:48;1.10;;;1.00;;
22186;SDS011;11259;52.146;12.844;2023-07-02T05:09:13;1.10;;;1.00;;
22186;SDS011;11259;52.146;12.844;2023-07-02T05:11:38;1.20;;;1.10;;
22186;SDS011;11259;52.146;12.844;2023-07-02T05:14:04;0.93;;;0.93;;
22186;SDS011;11259;52.146;12.844;2023-07-02T05:16:29;1.13;;;1.00;;
22186;SDS011;11259;52.146;12.844;2023-07-02T05:18:56;1.10;;;1.00;;
22186;SDS011;11259;52.146;12.844;2023-07-02T05:21:21;0.95;;;0.88;;
22186;SDS011;11259;52.146;12.844;2023-07-02T05:23:47;0.75;;;0.75;;
22186;SDS011;11259;52.146;12.844;2023-07-02T05:26:12;1.20;;;1.00;;
22186;SDS011;11259;52.146;12.844;2023-07-02T05:28:37;2.33;;;1.60;;
22186;SDS011;11259;52.146;12.844;2023-07-02T05:31:03;0.95;;;0.88;;
22186;SDS011;11259;52.146;12.844;2023-07-02T05:33:28;0.82;;;0.80;;
22186;SDS011;11259;52.146;12.844;2023-07-02T05:35:55;0.80;;;0.80;;
22186;SDS011;11259;52.146;12.844;2023-07-02T05:38:21;1.23;;;0.77;;
22186;SDS011;11259;52.146;12.844;2023-07-02T05:40:46;1.08;;;0.98;;
22186;SDS011;11259;52.146;12.844;2023-07-02T05:43:11;0.70;;;0.70;;
22186;SDS011;11259;52.146;12.844;2023-07-02T05:45:37;0.63;;;0.63;;
22186;SDS011;11259;52.146;12.844;2023-07-02T05:48:02;0.80;;;0.73;;
22186;SDS011;11259;52.146;12.844;2023-07-02T05:50:28;0.77;;;0.77;;
22186;SDS011;11259;52.146;12.844;2023-07-02T05:52:55;0.85;;;0.82;;
22186;SDS011;11259;52.146;12.844;2023-07-02T05:55:20;1.05;;;0.95;;
22186;SDS011;11259;52.146;12.844;2023-07-02T05:57:45;5.18;;;0.80;;
22186;SDS011;11259;52.146;12.844;2023-07-02T06:00:11;1.05;;;0.93;;
22186;SDS011;11259;52.146;12.844;2023-07-02T06:02:37;0.95;;;0.68;;
22186;SDS011;11259;52.146;12.844;2023-07-02T06:05:03;0.85;;;0.75;;
22186;SDS011;11259;52.146;12.844;2023-07-02T06:07:29;0.75;;;0.73;;
22186;SDS011;11259;52.146;12.844;2023-07-02T06:09:56;1.45;;;1.13;;
22186;SDS011;11259;52.146;12.844;2023-07-02T06:12:21;1.45;;;0.82;;
22186;SDS011;11259;52.146;12.844;2023-07-02T06:14:47;0.70;;;0.70;;
22186;SDS011;11259;52.146;12.844;2023-07-02T06:17:12;0.70;;;0.70;;
22186;SDS011;11259;52.146;12.844;2023-07-02T06:19:37;1.45;;;0.90;;
22186;SDS011;11259;52.146;12.844;2023-07-02T06:22:03;0.80;;;0.70;;
22186;SDS011;11259;52.146;12.844;2023-07-02T06:24:28;3.55;;;0.88;;
22186;SDS011;11259;52.146;12.844;2023-07-02T06:26:55;0.98;;;0.80;;
22186;SDS011;11259;52.146;12.844;2023-07-02T06:29:22;0.63;;;0.60;;
22186;SDS011;11259;52.146;12.844;2023-07-02T06:31:48;0.95;;;0.70;;
22186;SDS011;11259;52.146;12.844;2023-07-02T06:34:13;0.70;;;0.70;;
22186;SDS011;11259;52.146;12.844;2023-07-02T06:36:39;0.85;;;0.63;;
22186;SDS011;11259;52.146;12.844;2023-07-02T06:39:04;1.10;;;0.88;;
22186;SDS011;11259;52.146;12.844;2023-07-02T06:41:29;0.85;;;0.70;;
22186;SDS011;11259;52.146;12.844;2023-07-02T06:43:56;0.98;;;0.80;;
22186;SDS011;11259;52.146;12.844;2023-07-02T06:46:21;4.13;;;1.00;;
22186;SDS011;11259;52.146;12.844;2023-07-02T06:48:46;1.17;;;0.80;;
22186;SDS011;11259;52.146;12.844;2023-07-02T06:51:12;1.40;;;1.00;;
22186;SDS011;11259;52.146;12.844;2023-07-02T06:53:37;1.02;;;0.73;;
22186;SDS011;11259;52.146;12.844;2023-07-02T06:56:03;1.08;;;0.85;;
22186;SDS011;11259;52.146;12.844;2023-07-02T06:58:28;0.95;;;0.95;;
22186;SDS011;11259;52.146;12.844;2023-07-02T07:00:55;1.35;;;0.95;;
22186;SDS011;11259;52.146;12.844;2023-07-02T07:03:20;0.80;;;0.80;;
22186;SDS011;11259;52.146;12.844;2023-07-02T07:05:45;1.00;;;0.80;;
22186;SDS011;11259;52.146;12.844;2023-07-02T07:08:11;0.90;;;0.90;;
22186;SDS011;11259;52.146;12.844;2023-07-02T07:10:36;1.20;;;0.88;;
22186;SDS011;11259;52.146;12.844;2023-07-02T07:13:02;2.22;;;0.80;;
22186;SDS011;11259;52.146;12.844;2023-07-02T07:15:29;0.77;;;0.77;;
22186;SDS011;11259;52.146;12.844;2023-07-02T07:17:56;0.93;;;0.82;;
22186;SDS011;11259;52.146;12.844;2023-07-02T07:20:21;0.90;;;0.80;;
22186;SDS011;11259;52.146;12.844;2023-07-02T07:22:47;1.30;;;1.00;;
22186;SDS011;11259;52.146;12.844;2023-07-02T07:25:12;0.68;;;0.63;;
22186;SDS011;11259;52.146;12.844;2023-07-02T07:27:37;0.60;;;0.60;;
22186;SDS011;11259;52.146;12.844;2023-07-02T07:30:03;0.73;;;0.73;;
22186;SDS011;11259;52.146;12.844;2023-07-02T07:32:29;1.33;;;1.05;;
22186;SDS011;11259;52.146;12.844;2023-07-02T07:34:56;1.05;;;0.80;;
22186;SDS011;11259;52.146;12.844;2023-07-02T07:37:21;1.17;;;1.08;;
22186;SDS011;11259;52.146;12.844;2023-07-02T07:39:46;1.70;;;1.17;;
22186;SDS011;11259;52.146;12.844;2023-07-02T07:42:13;1.63;;;0.93;;
22186;SDS011;11259;52.146;12.844;2023-07-02T07:44:39;3.53;;;0.93;;
22186;SDS011;11259;52.146;12.844;2023-07-02T07:47:04;3.00;;;1.10;;
22186;SDS011;11259;52.146;12.844;2023-07-02T07:49:30;0.98;;;0.80;;
22186;SDS011;11259;52.146;12.844;2023-07-02T07:51:56;1.20;;;1.10;;
22186;SDS011;11259;52.146;12.844;2023-07-02T07:54:21;1.52;;;1.13;;
22186;SDS011;11259;52.146;12.844;2023-07-02T07:56:47;0.70;;;0.70;;
22186;SDS011;11259;52.146;12.844;2023-07-02T07:59:12;1.13;;;1.02;;
22186;SDS011;11259;52.146;12.844;2023-07-02T08:01:38;2.55;;;1.00;;
22186;SDS011;11259;52.146;12.844;2023-07-02T08:04:03;1.42;;;1.23;;
22186;SDS011;11259;52.146;12.844;2023-07-02T08:06:28;1.33;;;1.23;;
22186;SDS011;11259;52.146;12.844;2023-07-02T08:08:55;3.83;;;1.20;;
22186;SDS011;11259;52.146;12.844;2023-07-02T08:11:20;1.30;;;1.20;;
22186;SDS011;11259;52.146;12.844;2023-07-02T08:13:45;1.08;;;0.93;;
22186;SDS011;11259;52.146;12.844;2023-07-02T08:16:11;1.20;;;1.10;;
22186;SDS011;11259;52.146;12.844;2023-07-02T08:18:36;1.38;;;1.23;;
22186;SDS011;11259;52.146;12.844;2023-07-02T08:21:01;1.15;;;1.05;;
22186;SDS011;11259;52.146;12.844;2023-07-02T08:23:27;1.35;;;1.10;;
22186;SDS011;11259;52.146;12.844;2023-07-02T08:25:53;1.40;;;1.30;;
22186;SDS011;11259;52.146;12.844;2023-07-02T08:28:19;1.50;;;1.40;;
22186;SDS011;11259;52.146;12.844;2023-07-02T08:30:44;1.20;;;1.10;;
22186;SDS011;11259;52.146;12.844;2023-07-02T08:33:09;2.83;;;1.17;;
22186;SDS011;11259;52.146;12.844;2023-07-02T08:35:35;1.05;;;0.80;;
22186;SDS011;11259;52.146;12.844;2023-07-02T08:38:01;1.20;;;1.10;;
22186;SDS011;11259;52.146;12.844;2023-07-02T08:40:26;0.93;;;0.93;;
22186;SDS011;11259;52.146;12.844;2023-07-02T08:42:53;1.65;;;1.40;;
22186;SDS011;11259;52.146;12.844;2023-07-02T08:45:18;1.73;;;1.40;;
22186;SDS011;11259;52.146;12.844;2023-07-02T08:47:45;2.03;;;1.40;;
22186;SDS011;11259;52.146;12.844;2023-07-02T08:50:11;1.10;;;1.00;;
22186;SDS011;11259;52.146;12.844;2023-07-02T08:52:36;2.35;;;1.40;;
22186;SDS011;11259;52.146;12.844;2023-07-02T08:55:02;1.73;;;1.05;;
22186;SDS011;11259;52.146;12.844;2023-07-02T08:57:27;1.60;;;1.50;;
22186;SDS011;11259;52.146;12.844;2023-07-02T08:59:54;2.92;;;1.20;;
22186;SDS011;11259;52.146;12.844;2023-07-02T09:02:29;1.00;;;1.00;;
22186;SDS011;11259;52.146;12.844;2023-07-02T09:04:58;1.20;;;1.10;;
22186;SDS011;11259;52.146;12.844;2023-07-02T09:07:24;1.20;;;1.00;;
22186;SDS011;11259;52.146;12.844;2023-07-02T09:09:49;1.67;;;1.25;;
22186;SDS011;11259;52.146;12.844;2023-07-02T09:12:24;1.25;;;1.15;;
22186;SDS011;11259;52.146;12.844;2023-07-02T09:14:55;1.38;;;1.27;;
22186;SDS011;11259;52.146;12.844;2023-07-02T09:17:21;1.30;;;1.23;;
22186;SDS011;11259;52.146;12.844;2023-07-02T09:19:49;1.23;;;1.13;;
22186;SDS011;11259;52.146;12.844;2023-07-02T09:22:15;1.00;;;1.00;;
22186;SDS011;11259;52.146;12.844;2023-07-02T09:24:40;1.52;;;1.40;;
22186;SDS011;11259;52.146;12.844;2023-07-02T09:27:05;1.45;;;1.25;;
22186;SDS011;11259;52.146;12.844;2023-07-02T09:29:32;1.95;;;1.50;;
22186;SDS011;11259;52.146;12.844;2023-07-02T09:31:59;2.00;;;1.58;;
22186;SDS011;11259;52.146;12.844;2023-07-02T09:34:28;1.50;;;1.40;;
22186;SDS011;11259;52.146;12.844;2023-07-02T09:36:54;1.10;;;1.00;;
22186;SDS011;11259;52.146;12.844;2023-07-02T09:39:24;1.67;;;1.58;;
22186;SDS011;11259;52.146;12.844;2023-07-02T09:41:50;1.67;;;1.55;;
22186;SDS011;11259;52.146;12.844;2023-07-02T09:44:16;1.55;;;1.23;;
22186;SDS011;11259;52.146;12.844;2023-07-02T09:46:44;2.20;;;1.52;;
22186;SDS011;11259;52.146;12.844;2023-07-02T09:49:14;2.80;;;1.65;;
22186;SDS011;11259;52.146;12.844;2023-07-02T09:51:42;2.38;;;1.65;;
22186;SDS011;11259;52.146;12.844;2023-07-02T09:54:07;3.00;;;1.55;;
22186;SDS011;11259;52.146;12.844;2023-07-02T09:56:32;5.47;;;1.85;;
22186;SDS011;11259;52.146;12.844;2023-07-02T09:58:58;2.55;;;1.70;;
22186;SDS011;11259;52.146;12.844;2023-07-02T10:01:23;2.13;;;1.60;;
22186;SDS011;11259;52.146;12.844;2023-07-02T10:03:48;1.30;;;1.20;;
22186;SDS011;11259;52.146;12.844;2023-07-02T10:06:15;3.80;;;1.83;;
22186;SDS011;11259;52.146;12.844;2023-07-02T10:08:40;2.85;;;1.67;;
22186;SDS011;11259;52.146;12.844;2023-07-02T10:11:06;2.65;;;1.70;;
22186;SDS011;11259;52.146;12.844;2023-07-02T10:13:32;2.92;;;2.13;;
22186;SDS011;11259;52.146;12.844;2023-07-02T10:16:01;4.05;;;2.10;;
22186;SDS011;11259;52.146;12.844;2023-07-02T10:18:27;1.90;;;1.17;;
22186;SDS011;11259;52.146;12.844;2023-07-02T10:20:52;3.00;;;1.83;;
22186;SDS011;11259;52.146;12.844;2023-07-02T10:23:19;3.30;;;1.65;;
22186;SDS011;11259;52.146;12.844;2023-07-02T10:25:44;2.97;;;2.03;;
22186;SDS011;11259;52.146;12.844;2023-07-02T10:28:17;2.15;;;1.73;;
22186;SDS011;11259;52.146;12.844;2023-07-02T10:30:43;3.88;;;2.00;;
22186;SDS011;11259;52.146;12.844;2023-07-02T10:33:09;2.05;;;1.45;;
22186;SDS011;11259;52.146;12.844;2023-07-02T10:35:35;1.55;;;1.42;;
22186;SDS011;11259;52.146;12.844;2023-07-02T10:38:00;4.43;;;2.08;;
22186;SDS011;11259;52.146;12.844;2023-07-02T10:40:27;5.35;;;2.13;;
22186;SDS011;11259;52.146;12.844;2023-07-02T10:42:53;9.30;;;3.00;;
22186;SDS011;11259;52.146;12.844;2023-07-02T10:45:18;3.30;;;2.20;;
22186;SDS011;11259;52.146;12.844;2023-07-02T10:47:44;3.03;;;2.08;;
22186;SDS011;11259;52.146;12.844;2023-07-02T10:50:14;4.63;;;2.55;;
22186;SDS011;11259;52.146;12.844;2023-07-02T10:52:40;4.30;;;1.65;;
22186;SDS011;11259;52.146;12.844;2023-07-02T10:55:06;2.72;;;2.20;;
22186;SDS011;11259;52.146;12.844;2023-07-02T10:57:33;2.55;;;2.00;;
22186;SDS011;11259;52.146;12.844;2023-07-02T11:00:03;2.40;;;1.75;;
22186;SDS011;11259;52.146;12.844;2023-07-02T11:02:33;4.10;;;1.95;;
22186;SDS011;11259;52.146;12.844;2023-07-02T11:04:59;3.63;;;2.22;;
22186;SDS011;11259;52.146;12.844;2023-07-02T11:07:25;3.20;;;1.75;;
22186;SDS011;11259;52.146;12.844;2023-07-02T11:09:50;3.08;;;1.70;;
22186;SDS011;11259;52.146;12.844;2023-07-02T11:12:16;3.78;;;1.67;;
22186;SDS011;11259;52.146;12.844;2023-07-02T11:14:42;2.00;;;1.50;;
22186;SDS011;11259;52.146;12.844;2023-07-02T11:17:08;3.40;;;2.10;;
22186;SDS011;11259;52.146;12.844;2023-07-02T11:19:33;2.42;;;1.70;;
22186;SDS011;11259;52.146;12.844;2023-07-02T11:21:59;2.35;;;1.63;;
22186;SDS011;11259;52.146;12.844;2023-07-02T11:24:29;2.60;;;1.45;;
22186;SDS011;11259;52.146;12.844;2023-07-02T11:26:55;2.47;;;1.77;;
22186;SDS011;11259;52.146;12.844;2023-07-02T11:29:21;7.13;;;1.52;;
22186;SDS011;11259;52.146;12.844;2023-07-02T11:31:48;4.07;;;2.35;;
22186;SDS011;11259;52.146;12.844;2023-07-02T11:34:13;4.00;;;2.28;;
22186;SDS011;11259;52.146;12.844;2023-07-02T11:36:39;8.77;;;2.10;;
22186;SDS011;11259;52.146;12.844;2023-07-02T11:39:04;2.72;;;1.98;;
22186;SDS011;11259;52.146;12.844;2023-07-02T11:41:36;3.35;;;1.80;;
22186;SDS011;11259;52.146;12.844;2023-07-02T11:44:01;3.70;;;1.75;;
22186;SDS011;11259;52.146;12.844;2023-07-02T11:46:27;2.42;;;2.05;;
22186;SDS011;11259;52.146;12.844;2023-07-02T11:48:53;3.45;;;2.17;;
22186;SDS011;11259;52.146;12.844;2023-07-02T11:51:19;2.20;;;1.55;;
22186;SDS011;11259;52.146;12.844;2023-07-02T11:53:44;3.20;;;1.50;;
22186;SDS011;11259;52.146;12.844;2023-07-02T11:56:09;4.47;;;1.90;;
22186;SDS011;11259;52.146;12.844;2023-07-02T11:58:35;1.67;;;1.58;;
22186;SDS011;11259;52.146;12.844;2023-07-02T12:01:00;4.70;;;2.58;;
22186;SDS011;11259;52.146;12.844;2023-07-02T12:03:25;2.00;;;1.38;;
22186;SDS011;11259;52.146;12.844;2023-07-02T12:05:52;4.38;;;2.25;;
22186;SDS011;11259;52.146;12.844;2023-07-02T12:08:17;5.10;;;2.13;;
22186;SDS011;11259;52.146;12.844;2023-07-02T12:10:43;2.25;;;1.83;;
22186;SDS011;11259;52.146;12.844;2023-07-02T12:13:08;4.00;;;2.17;;
22186;SDS011;11259;52.146;12.844;2023-07-02T12:15:33;2.22;;;1.73;;
22186;SDS011;11259;52.146;12.844;2023-07-02T12:17:58;2.78;;;1.98;;
22186;SDS011;11259;52.146;12.844;2023-07-02T12:20:24;2.45;;;1.52;;
22186;SDS011;11259;52.146;12.844;2023-07-02T12:22:50;2.92;;;1.85;;
22186;SDS011;11259;52.146;12.844;2023-07-02T12:25:16;4.13;;;2.22;;
22186;SDS011;11259;52.146;12.844;2023-07-02T12:27:41;3.50;;;1.80;;
22186;SDS011;11259;52.146;12.844;2023-07-02T12:30:07;2.85;;;1.67;;
22186;SDS011;11259;52.146;12.844;2023-07-02T12:32:33;2.63;;;1.73;;
22186;SDS011;11259;52.146;12.844;2023-07-02T12:34:59;4.45;;;1.95;;
22186;SDS011;11259;52.146;12.844;2023-07-02T12:37:24;3.13;;;1.77;;
22186;SDS011;11259;52.146;12.844;2023-07-02T12:39:51;9.55;;;2.17;;
22186;SDS011;11259;52.146;12.844;2023-07-02T12:42:16;3.90;;;2.03;;
22186;SDS011;11259;52.146;12.844;2023-07-02T12:44:41;1.55;;;1.42;;
22186;SDS011;11259;52.146;12.844;2023-07-02T12:47:07;2.63;;;1.90;;
22186;SDS011;11259;52.146;12.844;2023-07-02T12:49:32;2.13;;;1.75;;
22186;SDS011;11259;52.146;12.844;2023-07-02T12:51:57;4.63;;;2.33;;
22186;SDS011;11259;52.146;12.844;2023-07-02T12:54:23;2.38;;;1.67;;
22186;SDS011;11259;52.146;12.844;2023-07-02T12:56:49;3.38;;;2.08;;
22186;SDS011;11259;52.146;12.844;2023-07-02T12:59:15;3.45;;;2.10;;
22186;SDS011;11259;52.146;12.844;2023-07-02T13:01:40;4.40;;;2.25;;
22186;SDS011;11259;52.146;12.844;2023-07-02T13:04:05;1.92;;;1.48;;
22186;SDS011;11259;52.146;12.844;2023-07-02T13:06:31;4.80;;;1.90;;
22186;SDS011;11259;52.146;12.844;2023-07-02T13:08:56;2.03;;;1.60;;
22186;SDS011;11259;52.146;12.844;2023-07-02T13:11:21;4.22;;;2.40;;
22186;SDS011;11259;52.146;12.844;2023-07-02T13:13:48;2.80;;;1.73;;
22186;SDS011;11259;52.146;12.844;2023-07-02T13:16:13;3.05;;;1.48;;
22186;SDS011;11259;52.146;12.844;2023-07-02T13:18:39;2.63;;;1.70;;
22186;SDS011;11259;52.146;12.844;2023-07-02T13:21:04;3.00;;;1.98;;
22186;SDS011;11259;52.146;12.844;2023-07-02T13:23:29;3.00;;;1.85;;
22186;SDS011;11259;52.146;12.844;2023-07-02T13:25:55;5.88;;;2.40;;
22186;SDS011;11259;52.146;12.844;2023-07-02T13:28:20;2.42;;;1.52;;
22186;SDS011;11259;52.146;12.844;2023-07-02T13:30:47;3.95;;;1.95;;
22186;SDS011;11259;52.146;12.844;2023-07-02T13:33:13;3.55;;;1.77;;
22186;SDS011;11259;52.146;12.844;2023-07-02T13:35:39;2.17;;;1.42;;
22186;SDS011;11259;52.146;12.844;2023-07-02T13:38:04;3.55;;;1.95;;
22186;SDS011;11259;52.146;12.844;2023-07-02T13:40:29;2.40;;;1.77;;
22186;SDS011;11259;52.146;12.844;2023-07-02T13:42:55;3.60;;;2.13;;
22186;SDS011;11259;52.146;12.844;2023-07-02T13:45:20;6.18;;;2.42;;
22186;SDS011;11259;52.146;12.844;2023-07-02T13:47:47;2.95;;;1.95;;
22186;SDS011;11259;52.146;12.844;2023-07-02T13:50:12;4.72;;;2.20;;
22186;SDS011;11259;52.146;12.844;2023-07-02T13:52:37;5.45;;;2.42;;
22186;SDS011;11259;52.146;12.844;2023-07-02T13:55:03;4.57;;;2.20;;
22186;SDS011;11259;52.146;12.844;2023-07-02T13:57:29;5.80;;;1.92;;
22186;SDS011;11259;52.146;12.844;2023-07-02T13:59:55;3.05;;;1.63;;
22186;SDS011;11259;52.146;12.844;2023-07-02T14:02:20;3.25;;;2.03;;
22186;SDS011;11259;52.146;12.844;2023-07-02T14:04:46;3.80;;;1.70;;
22186;SDS011;11259;52.146;12.844;2023-07-02T14:07:11;2.85;;;1.90;;
22186;SDS011;11259;52.146;12.844;2023-07-02T14:09:37;4.35;;;1.92;;
22186;SDS011;11259;52.146;12.844;2023-07-02T14:12:02;2.78;;;1.80;;
22186;SDS011;11259;52.146;12.844;2023-07-02T14:14:28;3.17;;;1.58;;
22186;SDS011;11259;52.146;12.844;2023-07-02T14:16:54;2.63;;;1.77;;
22186;SDS011;11259;52.146;12.844;2023-07-02T14:19:20;5.95;;;2.47;;
22186;SDS011;11259;52.146;12.844;2023-07-02T14:21:45;4.75;;;2.08;;
22186;SDS011;11259;52.146;12.844;2023-07-02T14:24:10;2.20;;;1.45;;